Time;durP1;ratioP1;P1;durP2;ratioP2;P2;SDS_P1;SDS_P2;PMS_P1;PMS_P2;Temp;Humidity;BMP_temperature;BMP_pressure;BME280_temperature;BME280_humidity;BME280_pressure;Samples;Min_cycle;Max_cycle;Signal;HPM_P1;HPM_P2
2022/06/14 00:02:29;;;;;;;13.32;8.48;;;;;;;25.89;99.14;100217.23;1643837;87;21106;-73
2022/06/14 00:04:56;;;;;;;10.60;7.97;;;;;;;25.94;98.30;100215.75;1637386;87;22041;-72
2022/06/14 00:07:23;;;;;;;13.78;8.55;;;;;;;25.90;98.41;100217.09;1645007;87;21051;-72
2022/06/14 00:09:51;;;;;;;12.88;7.58;;;;;;;25.95;97.66;100212.13;1645526;87;21516;-72
2022/06/14 00:12:18;;;;;;;9.75;7.95;;;;;;;26.01;97.47;100214.55;1643242;86;21519;-72
2022/06/14 00:14:47;;;;;;;8.10;7.22;;;;;;;25.87;98.34;100220.06;1638779;87;21111;-72
2022/06/14 00:17:14;;;;;;;9.68;7.70;;;;;;;25.77;98.73;100221.60;1641714;86;21103;-73
2022/06/14 00:19:42;;;;;;;9.15;8.15;;;;;;;25.70;99.00;100216.69;1651062;87;21086;-73
2022/06/14 00:22:10;;;;;;;11.00;8.45;;;;;;;25.67;98.76;100209.61;1647062;87;21071;-73
2022/06/14 00:24:39;;;;;;;9.45;8.45;;;;;;;25.70;99.24;100215.37;1656402;85;21060;-73
2022/06/14 00:27:07;;;;;;;10.85;8.48;;;;;;;25.64;99.35;100212.11;1649145;87;21086;-73
2022/06/14 00:29:34;;;;;;;12.05;8.65;;;;;;;25.57;99.16;100213.30;1646261;86;21016;-73
2022/06/14 00:32:01;;;;;;;12.40;8.25;;;;;;;25.52;98.70;100212.98;1650896;86;21538;-73
2022/06/14 00:34:30;;;;;;;10.68;8.48;;;;;;;25.50;98.58;100209.70;1647379;86;21173;-73
2022/06/14 00:36:57;;;;;;;11.38;8.60;;;;;;;25.31;98.73;100217.54;1650943;86;21038;-73
2022/06/14 00:39:24;;;;;;;10.05;8.35;;;;;;;25.28;100.00;100221.81;1647541;86;21082;-73
2022/06/14 00:41:54;;;;;;;12.23;8.90;;;;;;;25.34;99.75;100223.77;1649935;86;21090;-73
2022/06/14 00:44:26;;;;;;;9.90;8.40;;;;;;;25.45;98.83;100219.14;1686865;84;21539;-73
2022/06/14 00:47:10;;;;;;;10.50;8.48;;;;;;;25.46;98.07;100215.50;1690541;83;21040;-73
2022/06/14 00:50:00;;;;;;;13.98;8.78;;;;;;;25.43;97.70;100218.49;1689985;83;21579;-72
2022/06/14 00:52:33;;;;;;;10.00;8.85;;;;;;;25.29;98.30;100222.16;1688875;84;21039;-73
2022/06/14 00:55:17;;;;;;;9.98;8.73;;;;;;;25.29;98.34;100214.75;1692478;83;21146;-73
2022/06/14 00:57:49;;;;;;;11.83;8.48;;;;;;;25.27;98.74;100226.77;1692089;83;21616;-73
2022/06/14 01:00:21;;;;;;;10.40;8.30;;;;;;;25.36;98.34;100227.05;1679976;83;22293;-73
2022/06/14 01:03:00;;;;;;;13.03;8.90;;;;;;;25.36;98.47;100227.05;1691258;84;21055;-73
2022/06/14 01:08:26;;;;;;;9.95;8.30;;;;;;;25.27;99.17;100228.09;1648230;85;21047;-72
2022/06/14 01:10:56;;;;;;;14.00;8.58;;;;;;;25.17;99.73;100224.80;1648024;86;21499;-73
2022/06/14 01:13:24;;;;;;;17.37;9.05;;;;;;;25.17;100.00;100226.94;1653687;86;21602;-72
2022/06/14 01:15:54;;;;;;;12.40;8.55;;;;;;;25.16;99.67;100230.58;1647620;87;21095;-72
2022/06/14 01:18:24;;;;;;;10.95;8.33;;;;;;;25.11;100.00;100234.70;1653140;86;21093;-72
2022/06/14 01:20:52;;;;;;;13.10;8.90;;;;;;;25.08;100.00;100227.97;1650913;87;21078;-73
2022/06/14 01:23:19;;;;;;;13.98;8.83;;;;;;;25.12;100.00;100230.59;1653034;85;21063;-73
2022/06/14 01:25:58;;;;;;;9.60;8.60;;;;;;;25.30;99.10;100233.00;1681134;83;21089;-74
2022/06/14 01:28:26;;;;;;;10.63;8.45;;;;;;;25.33;98.59;100230.05;1689400;83;21086;-74
2022/06/14 01:30:54;;;;;;;13.20;8.65;;;;;;;25.28;99.10;100231.54;1692821;84;21086;-74
2022/06/14 01:33:27;;;;;;;10.80;8.55;;;;;;;25.30;99.31;100224.28;1686389;84;21536;-74
2022/06/14 01:36:02;;;;;;;12.85;9.30;;;;;;;25.32;98.45;100228.89;1689051;83;21154;-74
2022/06/14 01:38:30;;;;;;;14.03;8.60;;;;;;;25.19;98.55;100224.14;1687244;83;21082;-71
2022/06/14 01:41:09;;;;;;;12.58;8.83;;;;;;;25.25;97.80;100230.08;1689618;84;21083;-74
2022/06/14 01:44:09;;;;;;;12.35;8.08;;;;;;;25.37;96.74;100236.61;1691677;83;21127;-75
2022/06/14 01:46:45;;;;;;;9.88;8.85;;;;;;;25.37;96.91;100228.70;1694002;84;21546;-74
2022/06/14 01:53:04;;;;;;;15.83;8.43;;;;;;;25.22;96.57;100226.45;1684507;84;21594;-74
2022/06/14 01:56:09;;;;;;;11.45;8.85;;;;;;;25.28;96.04;100232.35;1687818;84;21169;-73
2022/06/14 01:59:11;;;;;;;9.55;8.43;;;;;;;25.30;96.17;100233.51;1677741;83;21531;-73
2022/06/14 02:02:02;;;;;;;9.35;8.28;;;;;;;25.20;96.54;100233.67;1689777;84;21031;-72
2022/06/14 02:04:58;;;;;;;13.05;8.15;;;;;;;25.30;95.43;100229.55;1692112;83;21618;-72
2022/06/14 02:07:49;;;;;;;14.15;8.48;;;;;;;25.28;94.85;100229.72;1691947;83;21091;-72
2022/06/14 02:10:44;;;;;;;9.43;8.20;;;;;;;25.15;95.26;100231.55;1691265;84;21055;-73
2022/06/14 02:13:30;;;;;;;11.22;9.00;;;;;;;25.28;95.39;100228.40;1689085;84;21048;-72
2022/06/14 02:16:11;;;;;;;10.28;9.00;;;;;;;25.37;94.97;100232.66;1690563;83;21592;-72
2022/06/14 02:19:01;;;;;;;12.80;9.35;;;;;;;25.36;95.17;100224.41;1691082;84;21071;-72
2022/06/14 02:21:43;;;;;;;11.65;8.80;;;;;;;25.39;95.25;100228.04;1690464;83;21519;-72
2022/06/14 02:24:33;;;;;;;10.43;9.23;;;;;;;25.45;95.53;100228.36;1689160;84;21606;-72
2022/06/14 02:27:07;;;;;;;12.43;9.90;;;;;;;25.47;95.15;100229.02;1688146;84;21070;-72
2022/06/14 02:29:45;;;;;;;11.10;9.77;;;;;;;25.43;95.29;100232.48;1689167;83;21492;-72
2022/06/14 02:32:21;;;;;;;10.68;8.95;;;;;;;25.57;95.22;100219.08;1692155;84;21880;-72
2022/06/14 02:34:58;;;;;;;11.88;9.75;;;;;;;25.61;94.67;100224.33;1695167;85;21539;-72
2022/06/14 02:37:33;;;;;;;11.68;8.85;;;;;;;25.81;93.36;100221.23;1684302;84;21013;-72
2022/06/14 02:40:19;;;;;;;11.05;8.93;;;;;;;25.58;94.82;100222.84;1691851;84;21043;-72
2022/06/14 02:43:01;;;;;;;15.05;9.33;;;;;;;25.92;94.22;100222.20;1686105;84;21626;-72
2022/06/14 02:45:42;;;;;;;13.22;10.08;;;;;;;25.59;95.02;100225.00;1689609;84;21090;-72
2022/06/14 02:48:17;;;;;;;13.88;10.05;;;;;;;25.65;95.54;100223.47;1690056;83;21096;-72
2022/06/14 02:50:55;;;;;;;14.20;10.18;;;;;;;25.49;96.43;100222.57;1684246;84;21527;-72
2022/06/14 02:53:31;;;;;;;13.48;10.05;;;;;;;25.40;97.02;100227.53;1647150;86;21028;-72
2022/06/14 02:56:15;;;;;;;14.00;9.25;;;;;;;25.54;96.91;100226.00;1681168;84;21551;-72
2022/06/14 02:59:01;;;;;;;11.63;9.60;;;;;;;25.75;95.74;100222.75;1682851;84;21560;-73
2022/06/14 03:01:45;;;;;;;13.08;10.08;;;;;;;25.89;94.55;100220.72;1673278;85;21060;-73
2022/06/14 03:04:22;;;;;;;;;;;;;;;26.19;92.26;100220.84;1673013;85;21103;-72
2022/06/14 03:07:16;;;;;;;14.83;9.45;;;;;;;26.18;91.33;100226.63;1680943;83;20435;-72
2022/06/14 03:09:46;;;;;;;13.22;9.73;;;;;;;26.35;90.87;100226.50;1687027;84;21024;-72
2022/06/14 03:12:44;;;;;;;13.83;9.75;;;;;;;26.45;89.95;100228.90;1691690;84;21543;-72
2022/06/14 03:15:24;;;;;;;14.35;10.55;;;;;;;26.39;90.17;100229.92;1691441;83;21017;-72
2022/06/14 03:18:20;;;;;;;12.15;10.05;;;;;;;26.44;91.15;100228.09;1661891;85;21044;-72
2022/06/14 03:21:13;;;;;;;12.93;9.80;;;;;;;26.50;89.60;100232.66;1687059;84;21709;-72
2022/06/14 03:23:55;;;;;;;12.70;10.00;;;;;;;26.96;87.72;100230.41;1690555;83;21067;-72
2022/06/14 03:26:52;;;;;;;15.03;10.32;;;;;;;26.80;89.33;100236.68;1686954;84;21052;-72
2022/06/14 03:29:45;;;;;;;12.50;10.28;;;;;;;26.80;90.34;100235.86;1684290;84;21077;-72
2022/06/14 03:32:24;;;;;;;11.15;10.05;;;;;;;26.97;89.67;100243.45;1652317;86;21032;-72
2022/06/14 03:35:14;;;;;;;12.78;10.08;;;;;;;27.07;88.87;100240.55;1682122;84;21103;-72
2022/06/14 03:37:42;;;;;;;12.73;10.50;;;;;;;27.22;89.21;100241.05;1659742;86;21067;-73
2022/06/14 03:40:13;;;;;;;10.88;9.25;;;;;;;27.38;87.85;100244.33;1625996;87;21064;-73
2022/06/14 03:42:41;;;;;;;10.78;9.68;;;;;;;27.63;86.30;100240.56;1629914;87;21106;-73
2022/06/14 03:45:13;;;;;;;12.03;10.00;;;;;;;27.75;85.07;100241.20;1628807;87;21047;-73
2022/06/14 03:47:40;;;;;;;11.95;10.48;;;;;;;27.84;85.09;100237.11;1657522;85;21031;-73
2022/06/14 03:50:12;;;;;;;14.20;9.93;;;;;;;27.93;85.08;100234.72;1648010;86;21124;-73
2022/06/14 03:53:15;;;;;;;13.70;10.10;;;;;;;27.93;85.04;100230.75;1680620;84;21154;-73
2022/06/14 03:56:14;;;;;;;13.98;10.13;;;;;;;28.12;84.45;100227.48;1681748;84;21044;-74
2022/06/14 03:59:20;;;;;;;12.25;9.85;;;;;;;28.29;83.25;100225.90;1652790;86;21048;-73
2022/06/14 04:01:52;;;;;;;14.83;9.58;;;;;;;28.44;82.93;100223.97;1680016;85;21153;-73
2022/06/14 04:04:43;;;;;;;14.70;9.45;;;;;;;28.61;82.70;100222.39;1676595;84;21114;-72
2022/06/14 04:07:37;;;;;;;11.60;8.93;;;;;;;28.81;81.87;100231.30;1684500;85;21083;-73
2022/06/14 04:10:18;;;;;;;12.65;9.50;;;;;;;28.76;82.59;100229.75;1662408;85;21092;-72
2022/06/14 04:13:13;;;;;;;12.65;9.43;;;;;;;28.96;82.79;100232.02;1679849;85;21158;-72
2022/06/14 04:16:22;;;;;;;9.90;8.78;;;;;;;29.10;82.39;100235.56;1682384;84;21087;-73
2022/06/14 04:19:09;;;;;;;11.90;8.58;;;;;;;29.34;81.74;100237.45;1681042;85;21116;-72
2022/06/14 04:22:07;;;;;;;12.75;9.00;;;;;;;29.47;80.74;100238.81;1681634;84;21925;-73
2022/06/14 04:24:46;;;;;;;13.22;8.70;;;;;;;29.56;81.02;100238.96;1678506;84;21060;-73
2022/06/14 04:27:18;;;;;;;10.23;8.70;;;;;;;29.67;80.80;100233.58;1673585;84;21047;-73
2022/06/14 04:29:50;;;;;;;;;;;;;;;29.82;79.08;100231.30;1685603;84;21083;-73
2022/06/14 04:32:53;;;;;;;8.00;7.22;;;;;;;29.94;78.38;100234.99;1680606;84;20241;-73
2022/06/14 04:35:40;;;;;;;8.00;7.20;;;;;;;30.07;78.38;100240.83;1651977;85;21035;-72
2022/06/14 04:38:16;;;;;;;8.08;7.25;;;;;;;30.25;77.92;100239.75;1583903;90;21052;-73
2022/06/14 04:41:13;;;;;;;9.53;6.65;;;;;;;30.43;76.18;100244.97;1597226;89;21563;-72
2022/06/14 04:44:00;;;;;;;10.13;6.70;;;;;;;30.65;75.72;100240.27;1576533;89;21085;-72
2022/06/14 04:46:38;;;;;;;8.25;6.80;;;;;;;30.72;75.03;100236.58;1648510;86;21055;-73
2022/06/14 04:49:19;;;;;;;8.35;6.20;;;;;;;30.91;74.84;100236.27;1635219;86;21061;-73
2022/06/14 04:51:52;;;;;;;7.95;6.65;;;;;;;30.90;73.98;100237.80;1655244;85;21091;-72
2022/06/14 04:54:36;;;;;;;10.40;6.60;;;;;;;31.08;73.21;100242.45;1659720;86;21102;-72
2022/06/14 04:57:12;;;;;;;7.53;6.72;;;;;;;31.20;72.50;100240.77;1649762;86;21110;-72
2022/06/14 04:59:44;;;;;;;7.72;6.20;;;;;;;31.41;72.40;100238.85;1653567;86;21054;-72
2022/06/14 05:02:51;;;;;;;9.35;6.87;;;;;;;31.46;72.49;100243.87;1636323;86;21059;-73
2022/06/14 05:05:38;;;;;;;7.75;6.67;;;;;;;31.57;72.35;100242.91;1639850;87;21142;-72
2022/06/14 05:08:25;;;;;;;10.88;6.60;;;;;;;31.75;71.70;100245.67;1640098;86;21586;-73
2022/06/14 05:11:06;;;;;;;6.85;6.17;;;;;;;31.93;71.23;100240.97;1644160;87;21582;-73
2022/06/14 05:14:02;;;;;;;6.83;6.10;;;;;;;32.14;70.59;100237.98;1620768;87;21066;-72
2022/06/14 05:16:49;;;;;;;9.48;6.30;;;;;;;32.40;69.50;100241.98;1644336;86;21071;-73
2022/06/14 05:19:44;;;;;;;9.40;5.95;;;;;;;32.37;68.98;100243.77;1646985;87;21091;-74
2022/06/14 05:22:22;;;;;;;6.30;5.67;;;;;;;32.42;68.50;100238.58;1644384;87;21078;-73
2022/06/14 05:24:50;;;;;;;8.00;6.30;;;;;;;32.54;67.79;100235.50;1648155;85;21748;-73
2022/06/14 05:27:35;;;;;;;7.33;5.75;;;;;;;32.54;67.79;100235.50;1679885;85;21622;-74
2022/06/14 05:30:08;;;;;;;8.85;6.15;;;;;;;32.73;66.85;100235.87;1675115;84;21126;-74
2022/06/14 05:32:46;;;;;;;7.40;5.95;;;;;;;32.77;65.61;100236.74;1680594;85;21603;-74
2022/06/14 05:35:54;;;;;;;7.50;5.55;;;;;;;32.86;65.30;100241.58;1667866;85;21081;-74
2022/06/14 05:38:39;;;;;;;9.00;5.40;;;;;;;32.94;65.80;100241.81;1680767;84;21589;-74
2022/06/14 05:41:18;;;;;;;7.75;5.58;;;;;;;32.88;65.14;100237.36;1675016;84;21557;-74
2022/06/14 05:44:03;;;;;;;7.72;5.28;;;;;;;33.09;64.53;100246.79;1681907;85;21068;-74
2022/06/14 05:46:47;;;;;;;6.05;5.28;;;;;;;33.28;63.80;100248.42;1679960;85;21056;-74
2022/06/14 05:49:19;;;;;;;8.63;5.35;;;;;;;33.45;63.03;100250.48;1684001;84;21520;-74
2022/06/14 05:51:58;;;;;;;7.85;5.45;;;;;;;33.56;61.51;100248.89;1681983;85;21595;-75
2022/06/14 05:54:38;;;;;;;6.10;5.50;;;;;;;33.78;60.52;100258.58;1647856;85;21142;-74
2022/06/14 05:57:37;;;;;;;7.30;5.08;;;;;;;33.76;60.78;100254.83;1686474;84;21043;-73
2022/06/14 06:00:21;;;;;;;6.12;5.47;;;;;;;33.91;60.97;100251.73;1685909;84;21063;-74
2022/06/14 06:03:31;;;;;;;6.83;5.42;;;;;;;34.01;58.46;100252.52;1679886;84;21531;-73
2022/06/14 06:06:04;;;;;;;6.30;5.60;;;;;;;34.04;56.35;100258.19;1680559;85;21037;-73
2022/06/14 06:08:45;;;;;;;8.05;5.05;;;;;;;34.00;56.89;100255.69;1681625;84;21000;-74
2022/06/14 06:11:27;;;;;;;6.70;4.97;;;;;;;34.06;55.97;100259.30;1683150;85;21552;-74
2022/06/14 06:14:16;;;;;;;8.28;5.87;;;;;;;34.36;55.03;100257.94;1690714;83;21122;-73
2022/06/14 06:17:03;;;;;;;8.38;5.03;;;;;;;34.36;55.03;100257.94;1683114;83;21047;-74
2022/06/14 06:19:36;;;;;;;8.23;5.50;;;;;;;34.52;54.79;100257.78;1648995;85;21055;-74
2022/06/14 06:22:15;;;;;;;6.53;5.45;;;;;;;34.73;54.05;100260.41;1650514;86;21131;-74
2022/06/14 06:24:54;;;;;;;6.37;5.50;;;;;;;34.82;54.32;100256.34;1649612;86;21153;-74
2022/06/14 06:27:28;;;;;;;9.23;6.10;;;;;;;34.85;53.19;100252.38;1646820;86;21118;-74
2022/06/14 06:30:17;;;;;;;9.45;5.50;;;;;;;34.74;54.05;100252.69;1647303;87;21518;-74
2022/06/14 06:32:45;;;;;;;8.63;5.83;;;;;;;34.87;52.95;100255.10;1652705;86;21078;-73
2022/06/14 06:35:14;;;;;;;8.88;6.05;;;;;;;34.91;53.43;100256.80;1656274;86;21099;-74
2022/06/14 06:37:52;;;;;;;10.30;5.92;;;;;;;34.97;52.67;100252.38;1648507;86;21103;-74
2022/06/14 06:40:25;;;;;;;8.70;5.83;;;;;;;35.13;51.84;100251.64;1672101;83;21023;-74
2022/06/14 06:43:12;;;;;;;8.83;5.50;;;;;;;35.06;50.96;100250.44;1691714;83;21535;-74
2022/06/14 06:45:44;;;;;;;9.85;6.28;;;;;;;35.16;50.85;100252.55;1690742;84;21134;-74
2022/06/14 06:48:22;;;;;;;7.78;5.67;;;;;;;35.27;50.56;100257.04;1692782;83;21134;-74
2022/06/14 06:50:55;;;;;;;9.63;6.22;;;;;;;35.43;49.87;100256.81;1687213;83;21071;-74
2022/06/14 06:53:24;;;;;;;7.97;5.75;;;;;;;35.49;49.24;100265.77;1693766;84;21083;-75
2022/06/14 06:56:00;;;;;;;8.08;5.85;;;;;;;35.86;48.27;100263.52;1693617;83;21059;-74
2022/06/14 06:58:38;;;;;;;6.58;5.60;;;;;;;35.95;48.14;100265.30;1689010;84;21099;-74
2022/06/14 07:01:28;;;;;;;10.35;5.33;;;;;;;36.00;48.55;100264.03;1688293;84;21654;-75
2022/06/14 07:05:14;;;;;;;9.73;5.50;;;;;;;36.29;45.56;100268.00;1684059;83;21536;-74
2022/06/14 07:06:56;;;;;;;6.37;5.55;;;;;;;36.25;45.74;100276.25;1657983;84;21060;-75
2022/06/14 07:09:35;;;;;;;7.58;5.62;;;;;;;36.58;45.02;100275.44;1665392;84;21026;-75
2022/06/14 07:12:16;;;;;;;8.63;5.55;;;;;;;36.72;46.11;100275.10;1682240;83;21215;-75
2022/06/14 07:15:16;;;;;;;7.20;5.50;;;;;;;36.06;45.93;100268.41;1657064;86;21629;-75
2022/06/14 07:17:54;;;;;;;6.03;5.40;;;;;;;35.92;45.61;100264.96;1646639;86;21083;-72
2022/06/14 07:20:44;;;;;;;6.55;5.25;;;;;;;36.43;45.34;100261.79;1651054;86;21544;-71
2022/06/14 07:23:28;;;;;;;7.17;5.40;;;;;;;36.72;45.59;100265.72;1651795;86;22265;-72
2022/06/14 07:26:10;;;;;;;8.58;5.80;;;;;;;36.96;45.26;100268.99;1647650;86;21012;-72
2022/06/14 07:29:00;;;;;;;5.67;5.17;;;;;;;36.68;46.64;100272.09;1622094;86;21135;-71
2022/06/14 07:31:41;;;;;;;9.25;5.55;;;;;;;36.60;46.55;100271.14;1653273;86;21086;-71
2022/06/14 07:34:10;;;;;;;5.78;5.25;;;;;;;36.29;47.05;100271.48;1648296;86;21059;-74
2022/06/14 07:37:07;;;;;;;5.60;5.10;;;;;;;36.92;45.88;100274.57;1644033;86;21035;-73
2022/06/14 07:39:49;;;;;;;8.03;5.50;;;;;;;37.18;44.89;100270.38;1667603;84;21039;-73
2022/06/14 07:43:01;;;;;;;8.88;5.58;;;;;;;37.35;43.50;100278.34;1689738;84;21059;-74
2022/06/14 07:45:42;;;;;;;6.55;5.47;;;;;;;37.34;43.21;100272.72;1696206;83;21047;-73
2022/06/14 07:48:23;;;;;;;7.53;6.10;;;;;;;37.59;43.52;100273.00;1692769;83;21023;-74
2022/06/14 07:51:13;;;;;;;6.87;4.97;;;;;;;37.72;42.81;100278.52;1689453;83;21535;-73
2022/06/14 07:53:45;;;;;;;7.30;5.40;;;;;;;37.62;42.53;100274.39;1686561;83;21543;-73
2022/06/14 07:56:22;;;;;;;;;;;;;;;37.76;43.93;100266.74;1692959;83;21098;-73
2022/06/14 07:59:01;;;;;;;6.22;5.58;;;;;;;37.22;43.33;100265.59;1680354;84;20131;-74
2022/06/14 08:01:55;;;;;;;9.05;5.53;;;;;;;37.13;43.39;100268.45;1680122;84;21044;-73
2022/06/14 08:04:54;;;;;;;6.12;5.35;;;;;;;37.27;43.01;100267.00;1649691;85;21199;-73
2022/06/14 08:07:24;;;;;;;6.90;5.08;;;;;;;37.47;43.88;100265.59;1681424;84;21079;-74
2022/06/14 08:10:18;;;;;;;6.12;5.45;;;;;;;37.46;42.98;100263.45;1681410;84;21563;-74
2022/06/14 08:13:09;;;;;;;8.93;5.50;;;;;;;37.63;44.37;100266.06;1684408;85;21048;-74
2022/06/14 08:15:40;;;;;;;6.08;5.12;;;;;;;37.81;43.13;100265.44;1679064;85;21036;-73
2022/06/14 08:18:37;;;;;;;6.60;5.05;;;;;;;38.04;42.05;100260.25;1668210;84;21097;-72
2022/06/14 08:21:16;;;;;;;9.23;5.00;;;;;;;38.18;41.23;100258.81;1645578;86;21079;-73
2022/06/14 08:24:07;;;;;;;6.12;4.70;;;;;;;38.35;40.57;100254.62;1643889;86;21079;-74
2022/06/14 08:26:42;;;;;;;5.28;4.78;;;;;;;38.43;39.54;100250.64;1644913;86;21564;-74
2022/06/14 08:29:29;;;;;;;7.87;4.80;;;;;;;38.10;39.87;100239.63;1649376;86;21483;-73
2022/06/14 08:32:17;;;;;;;7.33;4.67;;;;;;;38.38;39.98;100243.33;1681130;84;21556;-73
2022/06/14 08:35:12;;;;;;;6.03;4.87;;;;;;;38.51;38.80;100239.42;1690039;83;21082;-73
2022/06/14 08:37:51;;;;;;;5.60;5.00;;;;;;;38.57;39.22;100241.08;1695664;83;21515;-73
2022/06/14 08:41:01;;;;;;;7.25;5.22;;;;;;;38.35;39.43;100243.86;1688870;84;21012;-73
2022/06/14 08:43:45;;;;;;;6.92;4.60;;;;;;;38.16;38.75;100233.23;1686485;83;21040;-73
2022/06/14 08:46:35;;;;;;;5.62;5.12;;;;;;;38.13;37.17;100226.50;1691386;84;21039;-73
2022/06/14 08:49:24;;;;;;;5.42;4.70;;;;;;;38.15;38.28;100225.70;1686679;84;21188;-74
2022/06/14 08:52:17;;;;;;;5.67;5.05;;;;;;;38.15;39.73;100218.19;1685871;84;21067;-73
2022/06/14 08:55:06;;;;;;;6.00;4.65;;;;;;;38.34;39.69;100221.26;1663587;85;21091;-73
2022/06/14 08:58:21;;;;;;;8.38;5.10;;;;;;;38.49;38.82;100222.70;1632899;85;21095;-75
2022/06/14 09:01:07;;;;;;;5.40;4.90;;;;;;;38.28;38.36;100222.59;1666276;85;21603;-73
2022/06/14 09:04:08;;;;;;;5.80;4.75;;;;;;;38.30;39.23;100219.61;1663282;85;21162;-74
2022/06/14 09:07:09;;;;;;;5.78;4.78;;;;;;;38.00;38.17;100222.35;1656383;85;21063;-74
2022/06/14 09:09:50;;;;;;;6.12;4.60;;;;;;;38.10;37.17;100216.79;1659008;85;21125;-74
2022/06/14 09:12:28;;;;;;;5.55;4.75;;;;;;;38.45;38.08;100208.97;1641918;85;21575;-73
2022/06/14 09:15:33;;;;;;;5.22;4.70;;;;;;;38.60;37.94;100211.48;1658702;85;21066;-73
2022/06/14 09:18:22;;;;;;;6.53;5.10;;;;;;;38.52;36.98;100207.95;1681257;85;21031;-73
2022/06/14 09:21:16;;;;;;;7.03;4.70;;;;;;;38.87;37.72;100209.47;1671136;83;21538;-73
2022/06/14 09:24:21;;;;;;;7.58;4.80;;;;;;;39.16;37.37;100203.67;1660913;85;21038;-74
2022/06/14 09:27:33;;;;;;;5.42;4.80;;;;;;;39.12;36.84;100207.16;1658567;85;21061;-73
2022/06/14 09:30:33;;;;;;;5.95;4.70;;;;;;;39.39;37.94;100211.78;1632805;86;21579;-72
2022/06/14 09:33:30;;;;;;;6.53;5.00;;;;;;;39.58;36.59;100213.48;1630940;87;21092;-73
2022/06/14 09:36:30;;;;;;;7.95;4.87;;;;;;;39.65;35.51;100218.59;1650677;86;21522;-74
2022/06/14 09:39:17;;;;;;;6.83;4.87;;;;;;;39.60;35.44;100218.06;1651113;85;21113;-74
2022/06/14 09:42:28;;;;;;;10.50;5.15;;;;;;;39.11;36.47;100229.22;1640320;86;21102;-74
2022/06/14 09:45:28;;;;;;;10.35;4.40;;;;;;;38.93;35.85;100255.22;1650308;86;21039;-73
2022/06/14 09:48:16;;;;;;;8.13;4.50;;;;;;;36.65;37.22;100259.20;1646598;86;21063;-73
2022/06/14 09:50:58;;;;;;;7.87;4.53;;;;;;;36.07;38.23;100249.96;1644624;86;21129;-72
2022/06/14 09:53:49;;;;;;;6.67;4.50;;;;;;;35.66;37.87;100246.55;1642573;86;21107;-73
2022/06/14 09:56:49;;;;;;;8.28;4.42;;;;;;;36.11;37.73;100238.20;1644882;86;21063;-73
2022/06/14 09:59:42;;;;;;;7.40;3.90;;;;;;;36.24;38.39;100240.60;1641570;86;21101;-72
2022/06/14 10:02:52;;;;;;;5.85;3.67;;;;;;;35.83;38.11;100251.13;1645641;87;21107;-74
2022/06/14 10:05:40;;;;;;;8.90;3.72;;;;;;;35.88;37.76;100251.23;1681687;84;21103;-73
2022/06/14 10:08:26;;;;;;;6.35;3.80;;;;;;;35.55;38.04;100242.05;1691438;83;21090;-74
2022/06/14 10:11:14;;;;;;;5.33;3.80;;;;;;;35.86;38.33;100238.07;1684289;84;21554;-73
2022/06/14 10:14:11;;;;;;;5.10;4.10;;;;;;;36.26;38.47;100239.83;1664432;83;21929;-74
2022/06/14 10:16:51;;;;;;;7.97;4.37;;;;;;;36.18;37.97;100240.23;1677378;83;21039;-72
2022/06/14 10:19:36;;;;;;;5.25;4.00;;;;;;;36.57;38.98;100234.11;1645592;87;21532;-74
2022/06/14 10:22:51;;;;;;;4.95;4.03;;;;;;;36.76;39.00;100238.17;1648150;86;21567;-73
2022/06/14 10:25:37;;;;;;;5.08;3.98;;;;;;;37.08;37.91;100238.28;1642418;86;21060;-73
2022/06/14 10:28:22;;;;;;;6.58;3.72;;;;;;;37.32;35.52;100238.06;1641001;87;21067;-72
2022/06/14 10:31:09;;;;;;;4.70;3.50;;;;;;;37.85;35.92;100224.90;1650823;86;21566;-73
2022/06/14 10:34:07;;;;;;;3.75;3.02;;;;;;;38.11;34.31;100237.23;1642314;87;21566;-73
2022/06/14 10:37:17;;;;;;;5.83;3.27;;;;;;;38.01;34.49;100232.56;1642049;87;21071;-73
2022/06/14 10:39:53;;;;;;;4.10;3.50;;;;;;;38.20;34.22;100228.95;1606450;89;21277;-73
2022/06/14 10:42:43;;;;;;;4.00;3.58;;;;;;;38.56;33.53;100230.02;1646732;86;21040;-73
2022/06/14 10:45:32;;;;;;;3.60;3.30;;;;;;;38.55;33.26;100222.23;1663749;85;21076;-73
2022/06/14 10:48:20;;;;;;;3.87;3.50;;;;;;;38.64;34.16;100217.42;1661702;85;21520;-73
2022/06/14 10:51:23;;;;;;;3.60;3.30;;;;;;;38.58;33.31;100207.70;1665246;85;21059;-74
2022/06/14 10:54:24;;;;;;;8.18;3.52;;;;;;;38.91;33.60;100201.66;1659624;85;21052;-73
2022/06/14 10:57:20;;;;;;;4.92;3.70;;;;;;;39.09;32.98;100192.87;1659508;85;21063;-73
2022/06/14 11:00:11;;;;;;;4.65;3.52;;;;;;;38.93;33.08;100186.05;1664905;85;21043;-74
2022/06/14 11:03:04;;;;;;;4.22;3.40;;;;;;;39.82;32.44;100192.72;1664534;85;21067;-74
2022/06/14 11:05:57;;;;;;;6.03;3.70;;;;;;;39.63;32.73;100198.64;1667664;85;21068;-73
2022/06/14 11:08:42;;;;;;;4.83;3.65;;;;;;;39.51;32.90;100194.06;1688592;83;21543;-72
2022/06/14 11:11:30;;;;;;;3.83;3.37;;;;;;;39.70;33.09;100199.72;1691186;83;21075;-74
2022/06/14 11:14:32;;;;;;;6.17;3.87;;;;;;;39.60;32.96;100197.85;1689427;84;21070;-73
2022/06/14 11:17:36;;;;;;;4.20;3.80;;;;;;;39.40;33.18;100187.03;1691459;83;21070;-73
2022/06/14 11:20:43;;;;;;;5.97;3.65;;;;;;;39.51;32.74;100183.28;1678625;83;21197;-75
2022/06/14 11:23:24;;;;;;;5.33;3.55;;;;;;;39.76;32.58;100173.05;1647715;86;21053;-73
2022/06/14 11:26:27;;;;;;;5.85;3.67;;;;;;;39.69;31.58;100169.83;1684642;84;21551;-73
2022/06/14 11:29:21;;;;;;;4.62;3.70;;;;;;;39.68;31.98;100167.39;1646931;86;21111;-74
2022/06/14 11:32:05;;;;;;;4.42;3.62;;;;;;;39.82;31.69;100159.83;1594125;90;21193;-73
2022/06/14 11:34:51;;;;;;;4.72;3.60;;;;;;;40.17;31.38;100151.98;1594685;89;21032;-74
2022/06/14 11:38:01;;;;;;;4.42;3.58;;;;;;;40.39;30.22;100157.91;1594814;90;21064;-74
2022/06/14 11:40:32;;;;;;;6.40;3.60;;;;;;;40.93;30.47;100158.23;1595833;89;21041;-74
2022/06/14 11:43:16;;;;;;;;;;;;;;;41.23;29.90;100158.61;1597184;89;21584;-73
2022/06/14 11:46:28;;;;;;;6.22;3.58;;;;;;;41.91;29.34;100152.93;1600746;89;20123;-74
2022/06/14 11:49:16;;;;;;;6.50;3.60;;;;;;;41.69;30.59;100142.59;1595190;90;21556;-74
2022/06/14 11:51:54;;;;;;;5.05;3.80;;;;;;;41.73;31.17;100142.28;1594490;90;21049;-74
2022/06/14 11:54:26;;;;;;;5.85;3.70;;;;;;;41.42;31.32;100142.52;1597008;89;21056;-73
2022/06/14 11:57:13;;;;;;;3.92;3.42;;;;;;;41.46;29.88;100150.33;1595370;89;21048;-73
2022/06/14 12:00:07;;;;;;;4.08;3.58;;;;;;;41.27;28.79;100151.56;1594868;90;21048;-74
2022/06/14 12:02:56;;;;;;;;;;;;;;;41.70;29.85;100142.31;1599599;90;21545;-73
2022/06/14 12:05:57;;;;;;;4.08;3.25;;;;;;;41.72;29.41;100146.89;1595000;88;20107;-72
2022/06/14 12:08:57;;;;;;;3.72;3.42;;;;;;;41.56;28.93;100144.84;1594658;90;21040;-74
2022/06/14 12:11:55;;;;;;;4.90;3.62;;;;;;;41.54;28.70;100135.41;1566949;89;21033;-73
2022/06/14 12:15:07;;;;;;;7.03;3.33;;;;;;;41.52;31.01;100140.29;1595217;89;21049;-73
2022/06/14 12:17:42;;;;;;;4.25;3.27;;;;;;;41.26;29.40;100144.53;1594877;89;21124;-74
2022/06/14 12:20:23;;;;;;;4.05;3.20;;;;;;;41.44;30.03;100146.55;1600428;89;21096;-73
2022/06/14 12:23:15;;;;;;;3.30;3.00;;;;;;;41.02;30.14;100141.69;1596178;90;21029;-73
2022/06/14 12:29:27;;;;;;;5.00;3.40;;;;;;;41.30;29.03;100144.78;1614517;87;21150;-73
2022/06/14 12:32:33;;;;;;;3.70;3.35;;;;;;;41.59;28.88;100140.78;1652625;87;21078;-73
2022/06/14 12:35:07;;;;;;;5.08;3.70;;;;;;;41.98;28.97;100138.54;1643145;87;21067;-73
2022/06/14 12:38:04;;;;;;;4.42;3.52;;;;;;;41.66;29.43;100128.31;1640373;87;21039;-73
2022/06/14 12:40:54;;;;;;;4.37;3.33;;;;;;;41.64;30.76;100129.94;1648485;87;21119;-72
2022/06/14 12:43:30;;;;;;;5.28;3.50;;;;;;;41.50;30.18;100128.41;1640080;87;21070;-72
2022/06/14 12:46:13;;;;;;;3.75;3.40;;;;;;;41.02;29.00;100132.24;1643823;87;21063;-73
2022/06/14 12:48:48;;;;;;;4.75;3.20;;;;;;;40.66;29.50;100129.73;1645848;87;21639;-73
2022/06/14 12:51:36;;;;;;;4.83;3.27;;;;;;;40.29;31.11;100128.25;1645536;87;21055;-72
2022/06/14 12:54:28;;;;;;;3.92;3.10;;;;;;;40.32;31.21;100129.61;1578855;87;21051;-72
2022/06/14 12:57:00;;;;;;;5.60;3.70;;;;;;;40.41;31.87;100123.38;1649976;86;21090;-73